createdAt,value
2018-05-06T00:01:29.024Z,102425.76
2018-05-06T00:03:54.755Z,102429.67
2018-05-06T00:06:20.511Z,102428.55
2018-05-06T00:08:46.283Z,102429.09
2018-05-06T00:11:12.088Z,102419.20
2018-05-06T00:13:37.851Z,102420.66
2018-05-06T00:16:03.634Z,102411.23
2018-05-06T00:18:29.403Z,102419.73
2018-05-06T00:20:55.162Z,102420.31
2018-05-06T00:23:20.942Z,102426.62
2018-05-06T00:25:47.028Z,102424.10
2018-05-06T00:28:12.852Z,102422.94
2018-05-06T00:30:38.637Z,102424.67
2018-05-06T00:33:04.429Z,102420.93
2018-05-06T00:35:30.219Z,102421.12
2018-05-06T00:37:55.971Z,102414.70
2018-05-06T00:40:21.732Z,102418.88
2018-05-06T00:42:47.612Z,102414.28
2018-05-06T00:45:13.396Z,102410.53
2018-05-06T00:47:39.137Z,102407.98
2018-05-06T00:50:05.033Z,102405.50
2018-05-06T00:52:30.804Z,102401.36
2018-05-06T00:54:56.572Z,102396.34
2018-05-06T00:57:22.327Z,102404.38
2018-05-06T00:59:48.079Z,102397.07
2018-05-06T01:02:13.868Z,102409.46
2018-05-06T01:04:39.606Z,102410.08
2018-05-06T01:07:05.539Z,102408.48
2018-05-06T01:09:31.315Z,102412.46
2018-05-06T01:11:57.068Z,102409.98
2018-05-06T01:14:22.844Z,102418.79
2018-05-06T01:16:48.593Z,102416.27
2018-05-06T01:19:14.388Z,102410.59
2018-05-06T01:21:40.134Z,102412.87
2018-05-06T01:24:05.918Z,102412.91
2018-05-06T01:26:31.665Z,102407.81
2018-05-06T01:28:57.443Z,102409.63
2018-05-06T01:31:23.207Z,102408.42
2018-05-06T01:33:48.990Z,102411.55
2018-05-06T01:36:14.737Z,102413.08
2018-05-06T01:38:40.538Z,102416.20
2018-05-06T01:41:06.323Z,102412.53
2018-05-06T01:43:32.086Z,102417.00
2018-05-06T01:45:57.851Z,102416.54
2018-05-06T01:48:23.622Z,102415.09
2018-05-06T01:50:49.379Z,102414.08
2018-05-06T01:53:15.131Z,102410.71
2018-05-06T01:55:40.904Z,102408.97
2018-05-06T01:58:06.674Z,102404.30
2018-05-06T02:00:32.440Z,102400.90
2018-05-06T02:02:58.203Z,102396.80
2018-05-06T02:05:23.977Z,102404.98
2018-05-06T02:07:49.736Z,102399.37
2018-05-06T02:10:15.498Z,102399.95
2018-05-06T02:12:41.305Z,102409.17
2018-05-06T02:15:07.063Z,102407.47
2018-05-06T02:17:32.803Z,102414.14
2018-05-06T02:19:58.617Z,102409.81
2018-05-06T02:22:24.379Z,102415.06
2018-05-06T02:24:50.194Z,102408.61
2018-05-06T02:27:15.939Z,102412.73
2018-05-06T02:29:41.731Z,102403.19
2018-05-06T02:32:07.514Z,102405.54
2018-05-06T02:34:33.331Z,102411.78
2018-05-06T02:36:59.107Z,102410.19
2018-05-06T02:39:25.315Z,102404.94
2018-05-06T02:41:51.138Z,102407.21
2018-05-06T02:44:16.876Z,102410.44
2018-05-06T02:46:42.660Z,102410.66
2018-05-06T02:49:08.436Z,102404.62
2018-05-06T02:51:34.525Z,102410.44
2018-05-06T02:54:00.316Z,102402.58
2018-05-06T02:56:26.084Z,102403.95
2018-05-06T02:58:51.831Z,102400.95
2018-05-06T03:01:17.603Z,102402.64
2018-05-06T03:03:43.355Z,102404.63
2018-05-06T03:06:09.171Z,102395.09
2018-05-06T03:08:34.932Z,102403.92
2018-05-06T03:11:00.740Z,102403.56
2018-05-06T03:13:26.503Z,102409.37
2018-05-06T03:15:52.398Z,102408.60
2018-05-06T03:18:18.164Z,102408.99
2018-05-06T03:20:44.076Z,102405.20
2018-05-06T03:23:09.824Z,102405.70
2018-05-06T03:25:35.611Z,102404.06
2018-05-06T03:28:01.360Z,102403.75
2018-05-06T03:30:27.108Z,102396.91
2018-05-06T03:32:52.933Z,102390.35
2018-05-06T03:35:18.675Z,102393.90
2018-05-06T03:37:44.438Z,102395.87
2018-05-06T03:40:10.187Z,102402.57
2018-05-06T03:42:35.964Z,102413.52
2018-05-06T03:45:01.727Z,102418.02
2018-05-06T03:47:27.479Z,102415.04
2018-05-06T03:49:53.252Z,102420.34
2018-05-06T03:52:19.178Z,102423.00
2018-05-06T03:54:44.943Z,102423.04
2018-05-06T03:57:23.167Z,102428.28
2018-05-06T04:00:01.280Z,102428.70
2018-05-06T04:02:29.959Z,102419.53
2018-05-06T04:04:55.724Z,102425.70
2018-05-06T04:07:21.503Z,102422.05
2018-05-06T04:09:48.039Z,102428.56
2018-05-06T04:12:13.795Z,102432.01
2018-05-06T04:14:39.566Z,102434.98
2018-05-06T04:17:05.321Z,102438.31
2018-05-06T04:19:31.107Z,102442.64
2018-05-06T04:21:56.878Z,102443.35
2018-05-06T04:24:22.620Z,102454.05
2018-05-06T04:26:48.591Z,102449.84
2018-05-06T04:29:14.340Z,102446.55
2018-05-06T04:31:40.133Z,102444.11
2018-05-06T04:34:05.916Z,102443.69
2018-05-06T04:36:31.710Z,102442.48
2018-05-06T04:38:57.456Z,102450.56
2018-05-06T04:41:23.231Z,102449.46
2018-05-06T04:43:49.008Z,102455.80
2018-05-06T04:46:14.764Z,102454.20
2018-05-06T04:48:40.504Z,102451.30
2018-05-06T04:51:06.576Z,102456.22
2018-05-06T04:53:32.347Z,102454.19
2018-05-06T04:55:58.094Z,102455.81
2018-05-06T04:58:23.883Z,102455.48
2018-05-06T05:00:49.724Z,102460.26
2018-05-06T05:03:15.488Z,102451.97
2018-05-06T05:05:41.275Z,102453.70
2018-05-06T05:08:07.079Z,102453.86
2018-05-06T05:10:32.859Z,102452.95
2018-05-06T05:12:58.595Z,102452.16
2018-05-06T05:15:24.368Z,102446.45
2018-05-06T05:17:50.160Z,102446.06
2018-05-06T05:20:15.923Z,102443.45
2018-05-06T05:22:41.740Z,102443.42
2018-05-06T05:25:07.489Z,102445.62
2018-05-06T05:27:33.271Z,102443.04
2018-05-06T05:29:59.004Z,102439.13
2018-05-06T05:32:24.787Z,102444.93
2018-05-06T05:34:50.563Z,102454.44
2018-05-06T05:37:16.330Z,102457.84
2018-05-06T05:39:42.088Z,102460.03
2018-05-06T05:42:07.834Z,102458.70
2018-05-06T05:44:33.599Z,102463.31
2018-05-06T05:46:59.395Z,102459.50
2018-05-06T05:49:25.148Z,102463.82
2018-05-06T05:51:50.904Z,102464.92
2018-05-06T05:54:16.687Z,102466.94
2018-05-06T05:56:42.455Z,102465.88
2018-05-06T05:59:08.323Z,102472.89
2018-05-06T06:01:34.146Z,102476.87
2018-05-06T06:03:59.905Z,102483.36
2018-05-06T06:06:25.668Z,102480.52
2018-05-06T06:08:51.470Z,102479.45
2018-05-06T06:11:17.211Z,102470.87
2018-05-06T06:13:42.967Z,102478.05
2018-05-06T06:16:08.741Z,102473.22
2018-05-06T06:18:41.372Z,102485.41
2018-05-06T06:21:07.131Z,102483.84
2018-05-06T06:23:32.909Z,102498.97
2018-05-06T06:25:58.655Z,102493.48
2018-05-06T06:28:24.494Z,102504.03
2018-05-06T06:30:50.255Z,102506.88
2018-05-06T06:33:16.372Z,102506.12
2018-05-06T06:35:42.163Z,102509.14
2018-05-06T06:38:07.928Z,102511.01
2018-05-06T06:40:33.698Z,102505.30
2018-05-06T06:42:59.548Z,102507.41
2018-05-06T06:45:25.302Z,102503.11
2018-05-06T06:47:51.133Z,102507.84
2018-05-06T06:50:16.958Z,102512.97
2018-05-06T06:52:42.711Z,102505.87
2018-05-06T06:55:08.459Z,102492.22
2018-05-06T06:57:34.496Z,102494.50
2018-05-06T07:00:00.656Z,102503.74
2018-05-06T07:02:26.481Z,102505.05
2018-05-06T07:04:52.192Z,102508.26
2018-05-06T07:07:17.996Z,102505.80
2018-05-06T07:09:43.740Z,102504.51
2018-05-06T07:12:09.508Z,102496.80
2018-05-06T07:14:35.319Z,102499.63
2018-05-06T07:17:01.089Z,102496.20
2018-05-06T07:19:26.867Z,102491.82
2018-05-06T07:21:52.647Z,102493.02
2018-05-06T07:24:18.391Z,102483.67
2018-05-06T07:26:44.153Z,102484.19
2018-05-06T07:29:09.919Z,102478.83
2018-05-06T07:31:35.672Z,102481.70
2018-05-06T07:34:01.468Z,102481.25
2018-05-06T07:36:27.295Z,102472.31
2018-05-06T07:38:53.040Z,102468.92
2018-05-06T07:41:18.811Z,102475.13
2018-05-06T07:43:44.575Z,102465.28
2018-05-06T07:46:10.348Z,102473.14
2018-05-06T07:48:36.099Z,102475.69
2018-05-06T07:51:02.104Z,102469.12
2018-05-06T07:53:27.851Z,102460.47
2018-05-06T07:55:53.619Z,102461.86
2018-05-06T07:58:19.592Z,102467.41
2018-05-06T08:00:45.391Z,102471.09
2018-05-06T08:03:11.171Z,102474.29
2018-05-06T08:05:36.907Z,102476.81
2018-05-06T08:08:02.671Z,102479.44
2018-05-06T08:10:28.416Z,102476.59
2018-05-06T08:12:54.191Z,102483.62
2018-05-06T08:15:19.936Z,102487.87
2018-05-06T08:17:45.731Z,102484.05
2018-05-06T08:20:11.480Z,102498.80
2018-05-06T08:22:38.309Z,102484.66
2018-05-06T08:25:04.356Z,102487.05
2018-05-06T08:27:30.121Z,102488.84
2018-05-06T08:29:55.891Z,102484.72
2018-05-06T08:32:21.650Z,102486.27
2018-05-06T08:34:47.451Z,102472.30
2018-05-06T08:37:13.352Z,102478.38
2018-05-06T08:39:39.115Z,102474.34
2018-05-06T08:42:04.867Z,102472.80
2018-05-06T08:44:30.607Z,102478.09
2018-05-06T08:46:56.382Z,102472.52
2018-05-06T08:49:22.143Z,102476.48
2018-05-06T08:51:47.913Z,102473.34
2018-05-06T08:54:13.660Z,102476.67
2018-05-06T08:56:39.431Z,102475.34
2018-05-06T08:59:05.403Z,102475.95
2018-05-06T09:01:31.172Z,102482.32
2018-05-06T09:03:56.919Z,102481.22
2018-05-06T09:06:22.691Z,102467.56
2018-05-06T09:08:48.448Z,102469.02
2018-05-06T09:11:14.263Z,102473.58
2018-05-06T09:13:39.979Z,102464.22
2018-05-06T09:16:05.791Z,102462.61
2018-05-06T09:18:31.576Z,102461.38
2018-05-06T09:20:57.358Z,102449.19
2018-05-06T09:23:23.102Z,102453.83
2018-05-06T09:25:49.122Z,102453.37
2018-05-06T09:28:14.888Z,102458.78
2018-05-06T09:30:40.679Z,102447.56
2018-05-06T09:33:06.436Z,102442.00
2018-05-06T09:35:32.224Z,102430.34
2018-05-06T09:37:57.983Z,102439.48
2018-05-06T09:40:23.743Z,102445.54
2018-05-06T09:42:49.515Z,102440.05
2018-05-06T09:45:15.314Z,102438.45
2018-05-06T09:47:41.147Z,102437.00
2018-05-06T09:50:06.831Z,102439.99
2018-05-06T09:52:32.628Z,102447.94
2018-05-06T09:54:58.387Z,102445.80
2018-05-06T09:57:24.163Z,102451.86
2018-05-06T09:59:49.980Z,102443.34
2018-05-06T10:02:15.754Z,102450.87
2018-05-06T10:04:41.515Z,102441.23
2018-05-06T10:07:07.290Z,102444.38
2018-05-06T10:09:33.071Z,102436.50
2018-05-06T10:11:58.864Z,102435.23
2018-05-06T10:14:24.624Z,102433.03
2018-05-06T10:16:50.411Z,102434.41
2018-05-06T10:19:16.168Z,102433.91
2018-05-06T10:21:41.947Z,102439.10
2018-05-06T10:24:07.721Z,102433.89
2018-05-06T10:26:33.501Z,102428.73
2018-05-06T10:28:59.252Z,102437.66
2018-05-06T10:31:25.037Z,102430.46
2018-05-06T10:33:50.803Z,102424.56
2018-05-06T10:36:16.952Z,102427.05
2018-05-06T10:38:42.694Z,102424.73
2018-05-06T10:41:08.887Z,102424.27
2018-05-06T10:43:34.703Z,102417.27
2018-05-06T10:46:00.463Z,102417.31
2018-05-06T10:48:26.288Z,102418.31
2018-05-06T10:50:52.035Z,102411.56
2018-05-06T10:53:17.828Z,102406.32
2018-05-06T10:55:43.577Z,102408.85
2018-05-06T10:58:09.360Z,102401.03
2018-05-06T11:00:35.347Z,102403.39
2018-05-06T11:03:01.132Z,102397.13
2018-05-06T11:05:26.875Z,102414.56
2018-05-06T11:07:52.631Z,102402.96
2018-05-06T11:10:18.425Z,102395.05
2018-05-06T11:12:44.223Z,102395.22
2018-05-06T11:15:09.987Z,102395.70
2018-05-06T11:17:35.758Z,102393.05
2018-05-06T11:20:01.503Z,102387.77
2018-05-06T11:22:27.504Z,102384.84
2018-05-06T11:24:53.248Z,102376.84
2018-05-06T11:27:19.028Z,102373.16
2018-05-06T11:29:44.779Z,102381.59
2018-05-06T11:32:10.558Z,102374.14
2018-05-06T11:34:36.316Z,102377.08
2018-05-06T11:37:02.103Z,102380.62
2018-05-06T11:39:27.855Z,102374.88
2018-05-06T11:41:53.651Z,102368.52
2018-05-06T11:44:19.387Z,102369.41
2018-05-06T11:46:45.134Z,102359.95
2018-05-06T11:49:10.932Z,102355.20
2018-05-06T11:51:36.684Z,102357.71
2018-05-06T11:54:02.464Z,102352.50
2018-05-06T11:56:28.214Z,102349.61
2018-05-06T11:58:54.062Z,102345.83
2018-05-06T12:01:19.830Z,102342.58
2018-05-06T12:03:45.626Z,102344.94
2018-05-06T12:06:11.376Z,102342.34
2018-05-06T12:08:37.157Z,102348.31
2018-05-06T12:11:02.931Z,102347.47
2018-05-06T12:13:28.723Z,102337.95
2018-05-06T12:15:54.493Z,102334.72
2018-05-06T12:18:20.287Z,102334.52
2018-05-06T12:20:46.027Z,102328.91
2018-05-06T12:23:11.823Z,102325.13
2018-05-06T12:25:37.569Z,102325.63
2018-05-06T12:28:03.339Z,102322.22
2018-05-06T12:30:29.099Z,102318.74
2018-05-06T12:32:54.876Z,102323.17
2018-05-06T12:35:20.715Z,102323.35
2018-05-06T12:37:46.499Z,102310.34
2018-05-06T12:40:12.249Z,102306.08
2018-05-06T12:42:38.031Z,102301.68
2018-05-06T12:45:03.793Z,102299.48
2018-05-06T12:47:29.591Z,102303.81
2018-05-06T12:49:55.371Z,102295.83
2018-05-06T12:52:21.144Z,102296.08
2018-05-06T12:54:46.943Z,102288.26
2018-05-06T12:57:12.704Z,102289.73
2018-05-06T12:59:38.528Z,102286.01
2018-05-06T13:02:04.274Z,102280.91
2018-05-06T13:04:30.021Z,102284.75
2018-05-06T13:06:55.780Z,102281.21
2018-05-06T13:09:21.555Z,102279.31
2018-05-06T13:11:47.305Z,102276.70
2018-05-06T13:14:13.108Z,102279.42
2018-05-06T13:16:38.846Z,102276.09
2018-05-06T13:19:04.867Z,102273.63
2018-05-06T13:21:30.613Z,102273.84
2018-05-06T13:23:56.606Z,102277.13
2018-05-06T13:26:22.383Z,102273.84
2018-05-06T13:28:48.451Z,102267.06
2018-05-06T13:31:14.249Z,102267.87
2018-05-06T13:33:40.031Z,102261.34
2018-05-06T13:36:05.830Z,102257.07
2018-05-06T13:38:31.636Z,102251.44
2018-05-06T13:40:57.463Z,102241.06
2018-05-06T13:43:23.232Z,102244.53
2018-05-06T13:45:48.998Z,102240.99
2018-05-06T13:48:14.775Z,102246.27
2018-05-06T13:50:40.528Z,102245.12
2018-05-06T13:53:06.278Z,102236.80
2018-05-06T13:55:32.102Z,102231.06
2018-05-06T13:57:57.798Z,102231.14
2018-05-06T14:00:23.587Z,102230.97
2018-05-06T14:02:49.333Z,102232.89
2018-05-06T14:05:15.254Z,102214.48
2018-05-06T14:07:41.015Z,102221.28
2018-05-06T14:10:06.775Z,102212.94
2018-05-06T14:12:32.523Z,102222.31
2018-05-06T14:14:58.280Z,102213.30
2018-05-06T14:17:24.023Z,102214.23
2018-05-06T14:19:49.788Z,102216.63
2018-05-06T14:22:15.548Z,102208.50
2018-05-06T14:24:41.359Z,102199.12
2018-05-06T14:27:07.117Z,102215.78
2018-05-06T14:29:32.904Z,102199.69
2018-05-06T14:31:58.651Z,102200.58
2018-05-06T14:34:24.411Z,102201.22
2018-05-06T14:36:50.185Z,102208.14
2018-05-06T14:39:15.980Z,102196.92
2018-05-06T14:41:41.723Z,102195.11
2018-05-06T14:44:07.540Z,102194.84
2018-05-06T14:46:45.706Z,102189.34
2018-05-06T14:49:11.468Z,102187.92
2018-05-06T14:51:37.351Z,102182.61
2018-05-06T14:54:03.087Z,102188.55
2018-05-06T14:56:28.888Z,102183.03
2018-05-06T14:58:54.638Z,102180.66
2018-05-06T15:01:20.416Z,102178.45
2018-05-06T15:03:46.292Z,102188.75
2018-05-06T15:06:11.969Z,102181.14
2018-05-06T15:08:37.748Z,102179.05
2018-05-06T15:11:03.520Z,102171.15
2018-05-06T15:13:29.291Z,102162.92
2018-05-06T15:15:55.044Z,102160.35
2018-05-06T15:18:20.823Z,102165.57
2018-05-06T15:20:46.627Z,102168.97
2018-05-06T15:23:12.387Z,102163.95
2018-05-06T15:25:38.179Z,102163.45
2018-05-06T15:28:03.938Z,102163.81
2018-05-06T15:30:29.735Z,102160.49
2018-05-06T15:32:55.492Z,102157.89
2018-05-06T15:35:21.280Z,102160.07
2018-05-06T15:37:47.039Z,102161.71
2018-05-06T15:40:12.803Z,102160.88
2018-05-06T15:42:38.546Z,102162.73
2018-05-06T15:45:04.323Z,102151.34
2018-05-06T15:47:30.077Z,102153.88
2018-05-06T15:49:55.835Z,102152.03
2018-05-06T15:52:21.597Z,102148.60
2018-05-06T15:54:47.416Z,102147.27
2018-05-06T15:57:13.185Z,102140.71
2018-05-06T15:59:39.386Z,102142.66
2018-05-06T16:02:17.499Z,102136.55
2018-05-06T16:04:43.288Z,102129.36
2018-05-06T16:07:09.052Z,102128.47
2018-05-06T16:09:34.815Z,102124.64
2018-05-06T16:12:00.604Z,102119.06
2018-05-06T16:14:26.347Z,102122.94
2018-05-06T16:16:52.107Z,102121.84
2018-05-06T16:19:17.859Z,102125.74
2018-05-06T16:21:43.645Z,102121.50
2018-05-06T16:24:09.390Z,102120.36
2018-05-06T16:26:35.230Z,102120.30
2018-05-06T16:29:00.932Z,102117.48
2018-05-06T16:31:26.707Z,102118.19
2018-05-06T16:33:52.452Z,102113.38
2018-05-06T16:36:18.244Z,102111.84
2018-05-06T16:38:44.002Z,102111.42
2018-05-06T16:41:09.768Z,102103.67
2018-05-06T16:43:35.546Z,102107.40
2018-05-06T16:46:01.359Z,102102.74
2018-05-06T16:48:27.148Z,102101.06
2018-05-06T16:50:52.894Z,102110.42
2018-05-06T16:53:18.832Z,102105.84
2018-05-06T16:55:44.569Z,102101.06
2018-05-06T16:58:10.368Z,102098.61
2018-05-06T17:00:36.305Z,102103.88
2018-05-06T17:03:02.153Z,102104.45
2018-05-06T17:05:27.910Z,102105.58
2018-05-06T17:07:53.735Z,102099.15
2018-05-06T17:10:19.495Z,102099.59
2018-05-06T17:12:45.325Z,102097.41
2018-05-06T17:15:11.047Z,102093.73
2018-05-06T17:17:36.823Z,102092.95
2018-05-06T17:20:11.690Z,102099.92
2018-05-06T17:22:37.475Z,102098.44
2018-05-06T17:25:03.243Z,102096.60
2018-05-06T17:27:28.996Z,102097.95
2018-05-06T17:29:54.779Z,102091.40
2018-05-06T17:32:20.531Z,102092.19
2018-05-06T17:34:46.314Z,102101.24
2018-05-06T17:37:12.060Z,102090.21
2018-05-06T17:39:37.839Z,102089.64
2018-05-06T17:42:03.615Z,102096.60
2018-05-06T17:44:29.372Z,102090.84
2018-05-06T17:46:55.116Z,102091.19
2018-05-06T17:49:20.923Z,102102.92
2018-05-06T17:51:46.672Z,102101.14
2018-05-06T17:54:12.487Z,102100.80
2018-05-06T17:56:38.266Z,102100.08
2018-05-06T17:59:04.307Z,102098.37
2018-05-06T18:01:30.079Z,102099.95
2018-05-06T18:03:55.836Z,102099.70
2018-05-06T18:06:21.631Z,102102.30
2018-05-06T18:08:47.388Z,102098.53
2018-05-06T18:11:13.143Z,102104.22
2018-05-06T18:13:38.902Z,102099.91
2018-05-06T18:16:04.671Z,102098.27
2018-05-06T18:18:30.451Z,102100.33
2018-05-06T18:20:56.233Z,102100.28
2018-05-06T18:23:21.976Z,102094.20
2018-05-06T18:25:47.731Z,102094.92
2018-05-06T18:28:13.516Z,102096.55
2018-05-06T18:30:39.286Z,102098.73
2018-05-06T18:33:05.056Z,102095.48
2018-05-06T18:35:30.840Z,102099.92
2018-05-06T18:37:56.604Z,102097.45
2018-05-06T18:40:22.455Z,102098.45
2018-05-06T18:42:48.248Z,102091.91
2018-05-06T18:45:14.033Z,102091.66
2018-05-06T18:47:39.813Z,102095.63
2018-05-06T18:50:05.574Z,102092.89
2018-05-06T18:52:31.435Z,102099.97
2018-05-06T18:54:57.208Z,102104.80
2018-05-06T18:57:23.026Z,102101.08
2018-05-06T18:59:48.953Z,102110.72
2018-05-06T19:02:14.700Z,102101.89
2018-05-06T19:04:40.548Z,102101.39
2018-05-06T19:07:06.320Z,102108.55
2018-05-06T19:09:32.079Z,102097.95
2018-05-06T19:11:57.853Z,102095.89
2018-05-06T19:14:23.605Z,102101.89
2018-05-06T19:16:49.383Z,102106.94
2018-05-06T19:19:15.172Z,102107.19
2018-05-06T19:21:40.918Z,102102.67
2018-05-06T19:24:06.656Z,102107.36
2018-05-06T19:26:32.463Z,102111.42
2018-05-06T19:28:58.215Z,102114.75
2018-05-06T19:31:23.989Z,102103.39
2018-05-06T19:33:49.731Z,102115.08
2018-05-06T19:36:15.775Z,102112.59
2018-05-06T19:38:41.549Z,102116.88
2018-05-06T19:41:07.331Z,102120.69
2018-05-06T19:43:33.099Z,102120.88
2018-05-06T19:45:58.863Z,102129.87
2018-05-06T19:48:24.639Z,102127.61
2018-05-06T19:50:50.384Z,102125.72
2018-05-06T19:53:16.136Z,102126.94
2018-05-06T19:55:41.895Z,102125.31
2018-05-06T19:58:07.677Z,102131.50
2018-05-06T20:00:33.822Z,102132.52
2018-05-06T20:02:59.600Z,102126.65
2018-05-06T20:05:25.379Z,102120.54
2018-05-06T20:07:51.143Z,102126.51
2018-05-06T20:10:16.912Z,102120.33
2018-05-06T20:12:42.675Z,102114.96
2018-05-06T20:15:08.441Z,102118.51
2018-05-06T20:17:34.212Z,102118.61
2018-05-06T20:20:00.009Z,102114.67
2018-05-06T20:22:26.023Z,102122.69
2018-05-06T20:24:51.943Z,102119.61
2018-05-06T20:27:17.866Z,102115.67
2018-05-06T20:29:43.675Z,102118.17
2018-05-06T20:32:09.454Z,102120.51
2018-05-06T20:34:35.206Z,102125.02
2018-05-06T20:37:01.005Z,102126.95
2018-05-06T20:39:27.142Z,102128.97
2018-05-06T20:41:52.937Z,102121.81
2018-05-06T20:44:18.675Z,102124.01
2018-05-06T20:46:44.467Z,102125.00
2018-05-06T20:49:10.216Z,102119.37
2018-05-06T20:51:35.996Z,102116.81
2018-05-06T20:54:01.760Z,102116.09
2018-05-06T20:56:27.541Z,102113.59
2018-05-06T20:58:53.293Z,102114.13
2018-05-06T21:01:19.078Z,102109.84
2018-05-06T21:03:44.828Z,102114.42
2018-05-06T21:06:10.633Z,102105.77
2018-05-06T21:08:36.427Z,102104.14
2018-05-06T21:11:02.219Z,102108.20
2018-05-06T21:13:27.968Z,102106.89
2018-05-06T21:15:53.935Z,102102.93
2018-05-06T21:18:19.695Z,102113.19
2018-05-06T21:20:45.450Z,102102.59
2018-05-06T21:23:11.231Z,102107.01
2018-05-06T21:25:36.987Z,102106.60
2018-05-06T21:28:02.774Z,102110.91
2018-05-06T21:30:28.522Z,102113.03
2018-05-06T21:32:54.306Z,102108.16
2018-05-06T21:35:20.050Z,102120.91
2018-05-06T21:37:45.862Z,102116.61
2018-05-06T21:40:11.571Z,102119.44
2018-05-06T21:42:37.635Z,102122.52
2018-05-06T21:45:03.395Z,102120.74
2018-05-06T21:47:29.173Z,102125.20
2018-05-06T21:49:54.931Z,102119.36
2018-05-06T21:52:20.700Z,102115.88
2018-05-06T21:54:46.467Z,102119.36
2018-05-06T21:57:12.233Z,102117.31
2018-05-06T21:59:38.215Z,102114.81
2018-05-06T22:02:03.974Z,102110.53
2018-05-06T22:04:29.743Z,102110.53
2018-05-06T22:06:55.508Z,102110.62
2018-05-06T22:09:21.255Z,102107.18
2018-05-06T22:11:47.032Z,102111.98
2018-05-06T22:14:12.791Z,102104.04
2018-05-06T22:16:38.548Z,102110.02
2018-05-06T22:19:04.331Z,102109.44
2018-05-06T22:21:30.095Z,102107.98
2018-05-06T22:23:55.851Z,102114.44
2018-05-06T22:26:21.606Z,102104.60
2018-05-06T22:28:47.375Z,102107.45
2018-05-06T22:31:13.163Z,102104.95
2018-05-06T22:33:38.965Z,102107.86
2018-05-06T22:36:04.725Z,102102.20
2018-05-06T22:38:30.503Z,102102.56
2018-05-06T22:40:56.265Z,102104.14
2018-05-06T22:43:22.048Z,102108.11
2018-05-06T22:45:47.798Z,102103.02
2018-05-06T22:48:13.567Z,102101.00
2018-05-06T22:50:39.325Z,102105.20
2018-05-06T22:53:05.118Z,102102.81
2018-05-06T22:55:30.907Z,102102.17
2018-05-06T22:57:56.681Z,102099.82
2018-05-06T23:00:22.497Z,102103.14
2018-05-06T23:02:48.340Z,102097.16
2018-05-06T23:05:14.104Z,102099.64
2018-05-06T23:07:39.870Z,102099.47
2018-05-06T23:10:05.634Z,102102.38
2018-05-06T23:12:31.625Z,102099.66
2018-05-06T23:14:57.397Z,102100.16
2018-05-06T23:17:23.157Z,102099.24
2018-05-06T23:19:48.927Z,102097.28
2018-05-06T23:22:14.699Z,102099.36
2018-05-06T23:24:40.456Z,102093.77
2018-05-06T23:27:06.227Z,102092.73
2018-05-06T23:29:32.327Z,102088.13
2018-05-06T23:31:58.103Z,102088.33
2018-05-06T23:34:23.872Z,102094.76
2018-05-06T23:36:49.655Z,102094.95
2018-05-06T23:39:15.439Z,102100.20
2018-05-06T23:41:41.192Z,102101.92
2018-05-06T23:44:06.959Z,102106.61
2018-05-06T23:46:32.729Z,102106.52
2018-05-06T23:48:58.511Z,102102.53
2018-05-06T23:51:24.281Z,102095.20
2018-05-06T23:53:50.056Z,102096.70
2018-05-06T23:56:15.829Z,102099.69
2018-05-06T23:58:41.609Z,102097.72
